sensor_id;sensor_type;location;lat;lon;timestamp;pressure;altitude;pressure_sealevel;temperature;humidity
67099;BME280;54288;53.046;5.668;2023-11-19T00:01:14;100632.28;;;13.46;100.00
67099;BME280;54288;53.046;5.668;2023-11-19T00:03:40;100633.94;;;13.49;100.00
67099;BME280;54288;53.046;5.668;2023-11-19T00:06:06;100636.44;;;13.53;100.00
67099;BME280;54288;53.046;5.668;2023-11-19T00:08:32;100632.06;;;13.52;100.00
67099;BME280;54288;53.046;5.668;2023-11-19T00:10:59;100631.31;;;13.49;100.00
67099;BME280;54288;53.046;5.668;2023-11-19T00:13:26;100630.34;;;13.51;100.00
67099;BME280;54288;53.046;5.668;2023-11-19T00:15:53;100639.91;;;13.54;100.00
67099;BME280;54288;53.046;5.668;2023-11-19T00:18:19;100633.84;;;13.52;100.00
67099;BME280;54288;53.046;5.668;2023-11-19T00:20:45;100631.22;;;13.52;100.00
67099;BME280;54288;53.046;5.668;2023-11-19T00:23:14;100631.19;;;13.53;100.00
67099;BME280;54288;53.046;5.668;2023-11-19T00:25:40;100631.06;;;13.56;100.00
67099;BME280;54288;53.046;5.668;2023-11-19T00:28:14;100626.72;;;13.55;100.00
67099;BME280;54288;53.046;5.668;2023-11-19T00:30:40;100618.78;;;13.57;100.00
67099;BME280;54288;53.046;5.668;2023-11-19T00:33:09;100621.44;;;13.55;100.00
67099;BME280;54288;53.046;5.668;2023-11-19T00:35:35;100618.88;;;13.54;100.00
67099;BME280;54288;53.046;5.668;2023-11-19T00:38:01;100604.91;;;13.52;100.00
67099;BME280;54288;53.046;5.668;2023-11-19T00:40:29;100616.22;;;13.54;100.00
67099;BME280;54288;53.046;5.668;2023-11-19T00:42:58;100603.25;;;13.49;100.00
67099;BME280;54288;53.046;5.668;2023-11-19T00:45:25;100616.19;;;13.55;100.00
67099;BME280;54288;53.046;5.668;2023-11-19T00:47:52;100611.88;;;13.53;100.00
67099;BME280;54288;53.046;5.668;2023-11-19T00:50:19;100605.06;;;13.47;100.00
67099;BME280;54288;53.046;5.668;2023-11-19T00:52:45;100611.19;;;13.48;100.00
67099;BME280;54288;53.046;5.668;2023-11-19T00:55:12;100612.94;;;13.47;100.00
67099;BME280;54288;53.046;5.668;2023-11-19T00:57:40;100615.66;;;13.46;100.00
67099;BME280;54288;53.046;5.668;2023-11-19T01:00:06;100622.72;;;13.44;100.00
67099;BME280;54288;53.046;5.668;2023-11-19T01:02:45;100627.16;;;13.43;100.00
67099;BME280;54288;53.046;5.668;2023-11-19T01:05:11;100629.78;;;13.43;100.00
67099;BME280;54288;53.046;5.668;2023-11-19T01:07:40;100626.97;;;13.48;100.00
67099;BME280;54288;53.046;5.668;2023-11-19T01:10:07;100613.06;;;13.44;100.00
67099;BME280;54288;53.046;5.668;2023-11-19T01:12:34;100609.66;;;13.42;100.00
67099;BME280;54288;53.046;5.668;2023-11-19T01:15:09;100609.66;;;13.42;100.00
67099;BME280;54288;53.046;5.668;2023-11-19T01:17:38;100617.59;;;13.41;100.00
67099;BME280;54288;53.046;5.668;2023-11-19T01:20:05;100627.19;;;13.42;100.00
67099;BME280;54288;53.046;5.668;2023-11-19T01:22:33;100619.41;;;13.39;100.00
67099;BME280;54288;53.046;5.668;2023-11-19T01:24:59;100607.16;;;13.38;100.00
67099;BME280;54288;53.046;5.668;2023-11-19T01:27:25;100604.38;;;13.42;100.00
67099;BME280;54288;53.046;5.668;2023-11-19T01:29:57;100610.72;;;13.37;100.00
67099;BME280;54288;53.046;5.668;2023-11-19T01:32:24;100606.38;;;13.36;100.00
67099;BME280;54288;53.046;5.668;2023-11-19T01:34:50;100593.25;;;13.34;100.00
67099;BME280;54288;53.046;5.668;2023-11-19T01:37:16;100605.44;;;13.37;100.00
67099;BME280;54288;53.046;5.668;2023-11-19T01:39:45;100589.88;;;13.31;100.00
67099;BME280;54288;53.046;5.668;2023-11-19T01:42:13;100596.13;;;13.28;100.00
67099;BME280;54288;53.046;5.668;2023-11-19T01:44:40;100589.16;;;13.27;100.00
67099;BME280;54288;53.046;5.668;2023-11-19T01:47:06;100590.84;;;13.28;100.00
67099;BME280;54288;53.046;5.668;2023-11-19T01:49:33;100581.44;;;13.23;100.00
67099;BME280;54288;53.046;5.668;2023-11-19T01:52:00;100580.56;;;13.22;100.00
67099;BME280;54288;53.046;5.668;2023-11-19T01:54:28;100592.78;;;13.23;100.00
67099;BME280;54288;53.046;5.668;2023-11-19T01:56:56;100596.47;;;13.19;100.00
67099;BME280;54288;53.046;5.668;2023-11-19T01:59:24;100599.34;;;13.12;100.00
67099;BME280;54288;53.046;5.668;2023-11-19T02:01:55;100606.31;;;13.13;100.00
67099;BME280;54288;53.046;5.668;2023-11-19T02:04:23;100598.53;;;13.10;100.00
67099;BME280;54288;53.046;5.668;2023-11-19T02:06:54;100596.84;;;13.07;100.00
67099;BME280;54288;53.046;5.668;2023-11-19T02:09:22;100588.22;;;13.04;100.00
67099;BME280;54288;53.046;5.668;2023-11-19T02:11:48;100596.22;;;13.01;100.00
67099;BME280;54288;53.046;5.668;2023-11-19T02:14:17;100598.84;;;13.01;100.00
67099;BME280;54288;53.046;5.668;2023-11-19T02:16:47;100587.50;;;12.99;100.00
67099;BME280;54288;53.046;5.668;2023-11-19T02:19:12;100594.56;;;12.98;100.00
67099;BME280;54288;53.046;5.668;2023-11-19T02:21:38;100597.97;;;13.00;100.00
67099;BME280;54288;53.046;5.668;2023-11-19T02:24:06;100593.69;;;12.98;100.00
67099;BME280;54288;53.046;5.668;2023-11-19T02:26:40;100601.53;;;12.99;100.00
67099;BME280;54288;53.046;5.668;2023-11-19T02:29:11;100589.25;;;13.00;100.00
67099;BME280;54288;53.046;5.668;2023-11-19T02:31:39;100578.75;;;13.00;100.00
67099;BME280;54288;53.046;5.668;2023-11-19T02:34:05;100567.25;;;13.02;100.00
67099;BME280;54288;53.046;5.668;2023-11-19T02:36:32;100574.22;;;13.03;100.00
67099;BME280;54288;53.046;5.668;2023-11-19T02:38:58;100571.66;;;13.02;100.00
67099;BME280;54288;53.046;5.668;2023-11-19T02:41:24;100572.44;;;13.04;100.00
67099;BME280;54288;53.046;5.668;2023-11-19T02:43:50;100569.69;;;13.08;100.00
67099;BME280;54288;53.046;5.668;2023-11-19T02:46:17;100583.56;;;13.12;100.00
67099;BME280;54288;53.046;5.668;2023-11-19T02:48:43;100574.81;;;13.11;100.00
67099;BME280;54288;53.046;5.668;2023-11-19T02:51:10;100580.88;;;13.13;100.00
67099;BME280;54288;53.046;5.668;2023-11-19T02:53:37;100566.88;;;13.13;100.00
67099;BME280;54288;53.046;5.668;2023-11-19T02:56:03;100558.03;;;13.15;100.00
67099;BME280;54288;53.046;5.668;2023-11-19T02:58:53;100559.66;;;13.19;100.00
67099;BME280;54288;53.046;5.668;2023-11-19T03:01:25;100559.66;;;13.19;100.00
67099;BME280;54288;53.046;5.668;2023-11-19T03:04:02;100566.50;;;13.23;100.00
67099;BME280;54288;53.046;5.668;2023-11-19T03:06:29;100566.63;;;13.20;100.00
67099;BME280;54288;53.046;5.668;2023-11-19T03:08:56;100565.78;;;13.18;100.00
67099;BME280;54288;53.046;5.668;2023-11-19T03:11:22;100572.88;;;13.16;100.00
67099;BME280;54288;53.046;5.668;2023-11-19T03:13:48;100564.94;;;13.18;100.00
67099;BME280;54288;53.046;5.668;2023-11-19T03:16:14;100562.53;;;13.12;100.00
67099;BME280;54288;53.046;5.668;2023-11-19T03:18:40;100560.75;;;13.12;100.00
67099;BME280;54288;53.046;5.668;2023-11-19T03:21:07;100554.91;;;13.04;100.00
67099;BME280;54288;53.046;5.668;2023-11-19T03:23:37;100562.00;;;13.02;100.00
67099;BME280;54288;53.046;5.668;2023-11-19T03:26:03;100565.16;;;13.12;100.00
67099;BME280;54288;53.046;5.668;2023-11-19T03:28:31;100557.41;;;13.07;100.00
67099;BME280;54288;53.046;5.668;2023-11-19T03:30:57;100545.41;;;13.00;100.00
67099;BME280;54288;53.046;5.668;2023-11-19T03:33:23;100542.03;;;12.97;100.00
67099;BME280;54288;53.046;5.668;2023-11-19T03:35:49;100564.78;;;12.98;100.00
67099;BME280;54288;53.046;5.668;2023-11-19T03:38:16;100563.16;;;12.94;100.00
67099;BME280;54288;53.046;5.668;2023-11-19T03:40:42;100562.22;;;12.95;100.00
67099;BME280;54288;53.046;5.668;2023-11-19T03:43:08;100555.22;;;12.95;100.00
67099;BME280;54288;53.046;5.668;2023-11-19T03:45:35;100556.88;;;12.98;100.00
67099;BME280;54288;53.046;5.668;2023-11-19T03:48:01;100564.81;;;12.96;100.00
67099;BME280;54288;53.046;5.668;2023-11-19T03:50:28;100556.28;;;12.90;100.00
67099;BME280;54288;53.046;5.668;2023-11-19T03:52:54;100551.09;;;12.87;100.00
67099;BME280;54288;53.046;5.668;2023-11-19T03:55:20;100550.34;;;12.83;100.00
67099;BME280;54288;53.046;5.668;2023-11-19T03:57:46;100546.00;;;12.82;100.00
67099;BME280;54288;53.046;5.668;2023-11-19T04:00:14;100552.16;;;12.83;100.00
67099;BME280;54288;53.046;5.668;2023-11-19T04:02:41;100549.59;;;12.80;100.00
67099;BME280;54288;53.046;5.668;2023-11-19T04:05:07;100552.22;;;12.80;100.00
67099;BME280;54288;53.046;5.668;2023-11-19T04:07:33;100543.38;;;12.82;100.00
67099;BME280;54288;53.046;5.668;2023-11-19T04:09:59;100556.53;;;12.82;100.00
67099;BME280;54288;53.046;5.668;2023-11-19T04:12:25;100551.31;;;12.81;100.00
67099;BME280;54288;53.046;5.668;2023-11-19T04:14:51;100550.47;;;12.80;100.00
67099;BME280;54288;53.046;5.668;2023-11-19T04:17:18;100550.47;;;12.80;100.00
67099;BME280;54288;53.046;5.668;2023-11-19T04:19:44;100553.09;;;12.80;100.00
67099;BME280;54288;53.046;5.668;2023-11-19T04:22:10;100546.94;;;12.81;100.00
67099;BME280;54288;53.046;5.668;2023-11-19T04:24:36;100554.97;;;12.77;100.00
67099;BME280;54288;53.046;5.668;2023-11-19T04:27:04;100549.72;;;12.77;100.00
67099;BME280;54288;53.046;5.668;2023-11-19T04:29:32;100547.09;;;12.77;100.00
67099;BME280;54288;53.046;5.668;2023-11-19T04:31:58;100561.03;;;12.79;100.00
67099;BME280;54288;53.046;5.668;2023-11-19T04:34:26;100556.44;;;12.85;100.00
67099;BME280;54288;53.046;5.668;2023-11-19T04:36:52;100545.97;;;12.84;100.00
67099;BME280;54288;53.046;5.668;2023-11-19T04:39:18;100556.44;;;12.85;100.00
67099;BME280;54288;53.046;5.668;2023-11-19T04:41:48;100551.09;;;12.87;100.00
67099;BME280;54288;53.046;5.668;2023-11-19T04:44:20;100558.19;;;12.85;100.00
67099;BME280;54288;53.046;5.668;2023-11-19T04:46:46;100557.22;;;12.87;100.00
67099;BME280;54288;53.046;5.668;2023-11-19T04:49:13;100561.63;;;12.87;100.00
67099;BME280;54288;53.046;5.668;2023-11-19T04:51:45;100560.88;;;12.83;100.00
67099;BME280;54288;53.046;5.668;2023-11-19T04:54:14;100559.84;;;12.87;100.00
67099;BME280;54288;53.046;5.668;2023-11-19T04:56:40;100552.97;;;12.83;100.00
67099;BME280;54288;53.046;5.668;2023-11-19T04:59:06;100551.09;;;12.87;100.00
67099;BME280;54288;53.046;5.668;2023-11-19T05:01:33;100566.03;;;12.86;100.00
67099;BME280;54288;53.046;5.668;2023-11-19T05:03:59;100566.03;;;12.86;100.00
67099;BME280;54288;53.046;5.668;2023-11-19T05:06:31;100561.75;;;12.84;100.00
67099;BME280;54288;53.046;5.668;2023-11-19T05:08:59;100560.03;;;12.83;100.00
67099;BME280;54288;53.046;5.668;2023-11-19T05:11:34;100562.75;;;12.80;100.00
67099;BME280;54288;53.046;5.668;2023-11-19T05:14:01;100568.13;;;12.77;100.00
67099;BME280;54288;53.046;5.668;2023-11-19T05:16:29;100569.00;;;12.76;100.00
67099;BME280;54288;53.046;5.668;2023-11-19T05:18:58;100569.88;;;12.76;100.00
67099;BME280;54288;53.046;5.668;2023-11-19T05:21:24;100567.41;;;12.72;100.00
67099;BME280;54288;53.046;5.668;2023-11-19T05:23:50;100573.66;;;12.68;100.00
67099;BME280;54288;53.046;5.668;2023-11-19T05:26:20;100569.91;;;12.75;100.00
67099;BME280;54288;53.046;5.668;2023-11-19T05:28:46;100575.22;;;12.73;100.00
67099;BME280;54288;53.046;5.668;2023-11-19T05:31:13;100568.31;;;12.71;100.00
67099;BME280;54288;53.046;5.668;2023-11-19T05:33:39;100572.66;;;12.72;100.00
67099;BME280;54288;53.046;5.668;2023-11-19T05:36:05;100560.63;;;12.65;100.00
67099;BME280;54288;53.046;5.668;2023-11-19T05:38:34;100562.50;;;12.61;100.00
67099;BME280;54288;53.046;5.668;2023-11-19T05:41:00;100573.06;;;12.60;100.00
67099;BME280;54288;53.046;5.668;2023-11-19T05:43:26;100568.88;;;12.54;100.00
67099;BME280;54288;53.046;5.668;2023-11-19T05:45:52;100564.47;;;12.55;100.00
67099;BME280;54288;53.046;5.668;2023-11-19T05:48:18;100555.84;;;12.51;100.00
67099;BME280;54288;53.046;5.668;2023-11-19T05:50:44;100555.94;;;12.48;100.00
67099;BME280;54288;53.046;5.668;2023-11-19T05:53:10;100568.09;;;12.51;100.00
67099;BME280;54288;53.046;5.668;2023-11-19T05:55:36;100571.72;;;12.47;100.00
67099;BME280;54288;53.046;5.668;2023-11-19T05:58:10;100563.00;;;12.46;100.00
67099;BME280;54288;53.046;5.668;2023-11-19T06:00:38;100573.44;;;12.48;100.00
67099;BME280;54288;53.046;5.668;2023-11-19T06:03:04;100561.34;;;12.44;100.00
67099;BME280;54288;53.046;5.668;2023-11-19T06:05:30;100588.44;;;12.44;100.00
67099;BME280;54288;53.046;5.668;2023-11-19T06:07:55;100581.53;;;12.42;100.00
67099;BME280;54288;53.046;5.668;2023-11-19T06:10:23;100579.84;;;12.39;100.00
67099;BME280;54288;53.046;5.668;2023-11-19T06:12:54;100565.09;;;12.37;100.00
67099;BME280;54288;53.046;5.668;2023-11-19T06:15:22;100565.97;;;12.36;100.00
67099;BME280;54288;53.046;5.668;2023-11-19T06:17:48;100572.97;;;12.37;100.00
67099;BME280;54288;53.046;5.668;2023-11-19T06:20:13;100573.13;;;12.31;100.00
67099;BME280;54288;53.046;5.668;2023-11-19T06:22:40;100579.25;;;12.31;100.00
67099;BME280;54288;53.046;5.668;2023-11-19T06:25:08;100580.19;;;12.29;100.00
67099;BME280;54288;53.046;5.668;2023-11-19T06:27:33;100581.00;;;12.31;100.00
67099;BME280;54288;53.046;5.668;2023-11-19T06:30:00;100577.69;;;12.26;100.00
67099;BME280;54288;53.046;5.668;2023-11-19T06:32:26;100581.00;;;12.31;100.00
67099;BME280;54288;53.046;5.668;2023-11-19T06:34:52;100587.16;;;12.30;100.00
67099;BME280;54288;53.046;5.668;2023-11-19T06:37:17;100583.63;;;12.31;100.00
67099;BME280;54288;53.046;5.668;2023-11-19T06:39:43;100582.75;;;12.32;100.00
67099;BME280;54288;53.046;5.668;2023-11-19T06:42:09;100576.63;;;12.31;100.00
67099;BME280;54288;53.046;5.668;2023-11-19T06:44:35;100580.06;;;12.33;100.00
67099;BME280;54288;53.046;5.668;2023-11-19T06:47:00;100573.97;;;12.33;100.00
67099;BME280;54288;53.046;5.668;2023-11-19T06:49:26;100577.50;;;12.32;100.00
67099;BME280;54288;53.046;5.668;2023-11-19T06:51:52;100579.38;;;12.28;100.00
67099;BME280;54288;53.046;5.668;2023-11-19T06:54:17;100582.00;;;12.28;100.00
67099;BME280;54288;53.046;5.668;2023-11-19T06:56:43;100591.50;;;12.31;100.00
67099;BME280;54288;53.046;5.668;2023-11-19T06:59:09;100596.84;;;12.29;100.00
67099;BME280;54288;53.046;5.668;2023-11-19T07:01:35;100578.38;;;12.31;100.00
67099;BME280;54288;53.046;5.668;2023-11-19T07:04:02;100584.34;;;12.36;100.00
67099;BME280;54288;53.046;5.668;2023-11-19T07:06:34;100585.38;;;12.32;100.00
67099;BME280;54288;53.046;5.668;2023-11-19T07:09:00;100583.63;;;12.31;100.00
67099;BME280;54288;53.046;5.668;2023-11-19T07:11:38;100589.03;;;12.26;100.00
67099;BME280;54288;53.046;5.668;2023-11-19T07:14:05;100591.63;;;12.28;100.00
67099;BME280;54288;53.046;5.668;2023-11-19T07:16:32;100594.28;;;12.26;100.00
67099;BME280;54288;53.046;5.668;2023-11-19T07:19:00;100611.00;;;12.24;100.00
67099;BME280;54288;53.046;5.668;2023-11-19T07:21:27;100606.63;;;12.24;100.00
67099;BME280;54288;53.046;5.668;2023-11-19T07:23:55;100604.50;;;12.35;100.00
67099;BME280;54288;53.046;5.668;2023-11-19T07:26:22;100609.19;;;12.26;100.00
67099;BME280;54288;53.046;5.668;2023-11-19T07:28:48;100620.53;;;12.26;100.00
67099;BME280;54288;53.046;5.668;2023-11-19T07:31:14;100623.16;;;12.26;100.00
67099;BME280;54288;53.046;5.668;2023-11-19T07:33:40;100621.31;;;12.30;100.00
67099;BME280;54288;53.046;5.668;2023-11-19T07:36:09;100623.88;;;12.31;100.00
67099;BME280;54288;53.046;5.668;2023-11-19T07:38:34;100619.41;;;12.35;100.00
67099;BME280;54288;53.046;5.668;2023-11-19T07:41:00;100619.19;;;12.41;100.00
67099;BME280;54288;53.046;5.668;2023-11-19T07:43:26;100631.41;;;12.42;100.00
67099;BME280;54288;53.046;5.668;2023-11-19T07:45:52;100619.19;;;12.41;100.00
67099;BME280;54288;53.046;5.668;2023-11-19T07:48:18;100623.50;;;12.43;100.00
67099;BME280;54288;53.046;5.668;2023-11-19T07:50:52;100629.63;;;12.44;100.00
67099;BME280;54288;53.046;5.668;2023-11-19T07:53:18;100639.97;;;12.48;100.00
67099;BME280;54288;53.046;5.668;2023-11-19T07:55:44;100638.22;;;12.49;100.00
67099;BME280;54288;53.046;5.668;2023-11-19T07:58:12;100629.38;;;12.51;100.00
67099;BME280;54288;53.046;5.668;2023-11-19T08:00:38;100626.84;;;12.48;100.00
67099;BME280;54288;53.046;5.668;2023-11-19T08:03:04;100623.41;;;12.46;100.00
67099;BME280;54288;53.046;5.668;2023-11-19T08:05:33;100631.19;;;12.49;100.00
67099;BME280;54288;53.046;5.668;2023-11-19T08:07:58;100637.31;;;12.50;100.00
67099;BME280;54288;53.046;5.668;2023-11-19T08:10:24;100625.03;;;12.50;100.00
67099;BME280;54288;53.046;5.668;2023-11-19T08:12:50;100631.16;;;12.51;100.00
67099;BME280;54288;53.046;5.668;2023-11-19T08:15:16;100630.16;;;12.55;100.00
67099;BME280;54288;53.046;5.668;2023-11-19T08:17:42;100636.31;;;12.54;100.00
67099;BME280;54288;53.046;5.668;2023-11-19T08:20:09;100638.13;;;12.52;100.00
67099;BME280;54288;53.046;5.668;2023-11-19T08:22:38;100640.53;;;12.58;100.00
67099;BME280;54288;53.046;5.668;2023-11-19T08:25:05;100638.88;;;12.55;100.00
67099;BME280;54288;53.046;5.668;2023-11-19T08:27:31;100646.63;;;12.60;100.00
67099;BME280;54288;53.046;5.668;2023-11-19T08:29:58;100650.78;;;12.67;100.00
67099;BME280;54288;53.046;5.668;2023-11-19T08:32:27;100656.63;;;12.75;100.00
67099;BME280;54288;53.046;5.668;2023-11-19T08:34:53;100650.41;;;12.77;100.00
67099;BME280;54288;53.046;5.668;2023-11-19T08:37:19;100645.19;;;12.76;100.00
67099;BME280;54288;53.046;5.668;2023-11-19T08:39:50;100644.88;;;12.86;100.00
67099;BME280;54288;53.046;5.668;2023-11-19T08:42:18;100641.41;;;12.84;100.00
67099;BME280;54288;53.046;5.668;2023-11-19T08:44:48;100650.94;;;12.88;100.00
67099;BME280;54288;53.046;5.668;2023-11-19T08:47:16;100633.28;;;12.92;100.00
67099;BME280;54288;53.046;5.668;2023-11-19T08:49:45;100649.81;;;12.97;100.00
67099;BME280;54288;53.046;5.668;2023-11-19T08:52:11;100644.09;;;13.10;100.00
67099;BME280;54288;53.046;5.668;2023-11-19T08:54:37;100636.53;;;13.26;100.00
67099;BME280;54288;53.046;5.668;2023-11-19T08:57:03;100648.88;;;13.24;100.00
67099;BME280;54288;53.046;5.668;2023-11-19T08:59:29;100655.75;;;13.28;100.00
67099;BME280;54288;53.046;5.668;2023-11-19T09:01:55;100650.38;;;13.31;100.00
67099;BME280;54288;53.046;5.668;2023-11-19T09:04:21;100647.66;;;13.34;100.00
67099;BME280;54288;53.046;5.668;2023-11-19T09:06:48;100657.25;;;13.35;100.00
67099;BME280;54288;53.046;5.668;2023-11-19T09:09:14;100654.75;;;13.30;100.00
67099;BME280;54288;53.046;5.668;2023-11-19T09:11:40;100651.50;;;13.24;100.00
67099;BME280;54288;53.046;5.668;2023-11-19T09:14:06;100650.63;;;13.23;100.00
67099;BME280;54288;53.046;5.668;2023-11-19T09:16:31;100638.56;;;13.18;100.00
67099;BME280;54288;53.046;5.668;2023-11-19T09:18:58;100646.56;;;13.15;100.00
67099;BME280;54288;53.046;5.668;2023-11-19T09:21:27;100639.63;;;13.12;100.00
67099;BME280;54288;53.046;5.668;2023-11-19T09:23:55;100644.66;;;13.18;100.00
67099;BME280;54288;53.046;5.668;2023-11-19T09:26:21;100654.59;;;13.10;100.00
67099;BME280;54288;53.046;5.668;2023-11-19T09:28:47;100653.72;;;13.10;100.00
67099;BME280;54288;53.046;5.668;2023-11-19T09:31:17;100638.06;;;13.07;100.00
67099;BME280;54288;53.046;5.668;2023-11-19T09:33:43;100638.78;;;13.12;100.00
67099;BME280;54288;53.046;5.668;2023-11-19T09:36:12;100640.44;;;13.14;100.00
67099;BME280;54288;53.046;5.668;2023-11-19T09:38:43;100643.97;;;13.13;100.00
67099;BME280;54288;53.046;5.668;2023-11-19T09:41:10;100652.88;;;13.09;100.00
67099;BME280;54288;53.046;5.668;2023-11-19T09:43:39;100640.38;;;13.16;100.00
67099;BME280;54288;53.046;5.668;2023-11-19T09:46:17;100647.25;;;13.20;100.00
67099;BME280;54288;53.046;5.668;2023-11-19T09:48:56;100641.28;;;13.15;100.00
67099;BME280;54288;53.046;5.668;2023-11-19T09:51:25;100649.94;;;13.18;100.00
67099;BME280;54288;53.046;5.668;2023-11-19T09:53:51;100662.13;;;13.21;100.00
67099;BME280;54288;53.046;5.668;2023-11-19T09:56:18;100652.47;;;13.21;100.00
67099;BME280;54288;53.046;5.668;2023-11-19T09:58:44;100656.66;;;13.27;100.00
67099;BME280;54288;53.046;5.668;2023-11-19T10:01:11;100648.63;;;13.31;100.00
67099;BME280;54288;53.046;5.668;2023-11-19T10:03:39;100647.66;;;13.34;100.00
67099;BME280;54288;53.046;5.668;2023-11-19T10:06:37;100655.38;;;13.38;100.00
67099;BME280;54288;53.046;5.668;2023-11-19T10:23:13;100654.91;;;13.52;100.00
67099;BME280;54288;53.046;5.668;2023-11-19T10:25:45;100654.91;;;13.52;100.00
67099;BME280;54288;53.046;5.668;2023-11-19T10:28:19;100638.19;;;13.53;100.00
67099;BME280;54288;53.046;5.668;2023-11-19T10:30:48;100646.78;;;13.58;100.00
67099;BME280;54288;53.046;5.668;2023-11-19T10:33:15;100653.75;;;13.59;100.00
67099;BME280;54288;53.046;5.668;2023-11-19T10:35:54;100644.72;;;13.66;100.00
67099;BME280;54288;53.046;5.668;2023-11-19T10:38:28;100649.94;;;13.67;100.00
67099;BME280;54288;53.046;5.668;2023-11-19T10:40:54;100641.09;;;13.70;100.00
67099;BME280;54288;53.046;5.668;2023-11-19T10:43:23;100640.22;;;13.69;100.00
67099;BME280;54288;53.046;5.668;2023-11-19T10:45:49;100644.41;;;13.75;100.00
67099;BME280;54288;53.046;5.668;2023-11-19T10:48:15;100643.72;;;13.70;100.00
67099;BME280;54288;53.046;5.668;2023-11-19T10:50:43;100648.84;;;13.73;100.00
67099;BME280;54288;53.046;5.668;2023-11-19T10:53:11;100647.88;;;13.75;100.00
67099;BME280;54288;53.046;5.668;2023-11-19T10:55:47;100642.47;;;13.80;100.00
67099;BME280;54288;53.046;5.668;2023-11-19T10:58:16;100646.91;;;13.78;100.00
67099;BME280;54288;53.046;5.668;2023-11-19T11:00:52;100640.69;;;13.80;100.00
67099;BME280;54288;53.046;5.668;2023-11-19T11:03:21;100651.16;;;13.82;100.00
67099;BME280;54288;53.046;5.668;2023-11-19T11:05:52;100652.88;;;13.83;100.00
67099;BME280;54288;53.046;5.668;2023-11-19T11:08:23;100647.66;;;13.81;100.00
67099;BME280;54288;53.046;5.668;2023-11-19T11:10:54;100659.09;;;13.80;100.00
67099;BME280;54288;53.046;5.668;2023-11-19T11:13:23;100633.00;;;13.74;100.00
67099;BME280;54288;53.046;5.668;2023-11-19T11:15:55;100630.50;;;13.71;100.00
67099;BME280;54288;53.046;5.668;2023-11-19T11:18:24;100640.13;;;13.72;100.00
67099;BME280;54288;53.046;5.668;2023-11-19T11:21:02;100633.97;;;13.72;100.00
67099;BME280;54288;53.046;5.668;2023-11-19T11:29:14;100629.78;;;13.91;100.00
67099;BME280;54288;53.046;5.668;2023-11-19T11:48:15;100630.06;;;14.06;100.00
67099;BME280;54288;53.046;5.668;2023-11-19T11:50:55;100629.13;;;14.07;100.00
67099;BME280;54288;53.046;5.668;2023-11-19T11:53:23;100632.72;;;14.05;100.00
67099;BME280;54288;53.046;5.668;2023-11-19T11:58:19;100621.19;;;14.09;100.00
67099;BME280;54288;53.046;5.668;2023-11-19T12:00:48;100625.53;;;14.10;100.00
67099;BME280;54288;53.046;5.668;2023-11-19T12:03:14;100616.69;;;14.11;100.00
67099;BME280;54288;53.046;5.668;2023-11-19T12:05:43;100614.69;;;14.19;100.00
67099;BME280;54288;53.046;5.668;2023-11-19T12:08:11;100613.81;;;14.17;100.00
67099;BME280;54288;53.046;5.668;2023-11-19T12:10:45;100615.53;;;14.19;100.00
67099;BME280;54288;53.046;5.668;2023-11-19T12:13:11;100610.25;;;14.19;100.00
67099;BME280;54288;53.046;5.668;2023-11-19T12:20:50;100600.84;;;14.35;100.00
67099;BME280;54288;53.046;5.668;2023-11-19T12:23:16;100610.88;;;14.47;100.00
67099;BME280;54288;53.046;5.668;2023-11-19T12:25:41;100612.25;;;14.57;100.00
67099;BME280;54288;53.046;5.668;2023-11-19T12:28:12;100605.25;;;14.56;100.00
67099;BME280;54288;53.046;5.668;2023-11-19T12:30:39;100607.91;;;14.56;100.00
67099;BME280;54288;53.046;5.668;2023-11-19T12:33:12;100607.22;;;14.51;100.00
67099;BME280;54288;53.046;5.668;2023-11-19T12:35:44;100607.53;;;14.44;100.00
67099;BME280;54288;53.046;5.668;2023-11-19T12:38:22;100607.81;;;14.36;100.00
67099;BME280;54288;53.046;5.668;2023-11-19T12:41:05;100598.63;;;14.25;100.00
67099;BME280;54288;53.046;5.668;2023-11-19T12:43:31;100609.22;;;14.23;100.00
67099;BME280;54288;53.046;5.668;2023-11-19T12:45:57;100611.81;;;14.25;100.00
67099;BME280;54288;53.046;5.668;2023-11-19T12:48:23;100607.56;;;14.21;100.00
67099;BME280;54288;53.046;5.668;2023-11-19T12:50:58;100595.31;;;14.20;100.00
67099;BME280;54288;53.046;5.668;2023-11-19T12:53:26;100602.47;;;14.16;100.00
67099;BME280;54288;53.046;5.668;2023-11-19T12:55:54;100604.31;;;14.13;100.00
67099;BME280;54288;53.046;5.668;2023-11-19T12:58:36;100610.41;;;14.15;100.00
67099;BME280;54288;53.046;5.668;2023-11-19T13:01:06;100604.22;;;14.16;100.00
67099;BME280;54288;53.046;5.668;2023-11-19T13:03:34;100604.22;;;14.16;100.00
67099;BME280;54288;53.046;5.668;2023-11-19T13:06:07;100611.25;;;14.15;100.00
67099;BME280;54288;53.046;5.668;2023-11-19T13:11:30;100600.22;;;14.06;100.00
67099;BME280;54288;53.046;5.668;2023-11-19T13:14:02;100600.06;;;14.10;100.00
67099;BME280;54288;53.046;5.668;2023-11-19T13:16:31;100603.78;;;14.05;100.00
67099;BME280;54288;53.046;5.668;2023-11-19T13:18:58;100600.44;;;14.00;100.00
67099;BME280;54288;53.046;5.668;2023-11-19T13:21:25;100596.97;;;13.99;100.00
67099;BME280;54288;53.046;5.668;2023-11-19T13:23:51;100600.59;;;13.97;100.00
67099;BME280;54288;53.046;5.668;2023-11-19T13:26:16;100600.44;;;14.00;100.00
67099;BME280;54288;53.046;5.668;2023-11-19T13:28:42;100599.72;;;13.96;100.00
67099;BME280;54288;53.046;5.668;2023-11-19T13:31:07;100598.00;;;13.95;100.00